Time;durP1;ratioP1;P1;durP2;ratioP2;P2;SDS_P1;SDS_P2;PMS_P1;PMS_P2;Temp;Humidity;BMP_temperature;BMP_pressure;BME280_temperature;BME280_humidity;BME280_pressure;Samples;Min_cycle;Max_cycle;Signal;HPM_P1;HPM_P2
2023/03/22 00:01:19;;;;;;;4.57;0.60;;;;;;;;;;5020980;28;20041;-46
2023/03/22 00:03:48;;;;;;;8.60;0.98;;;;;;;;;;5014842;28;20411;-46
2023/03/22 00:06:17;;;;;;;7.03;0.90;;;;;;;;;;4978317;28;20072;-48
2023/03/22 00:08:45;;;;;;;5.68;0.82;;;;;;;;;;5020916;28;20149;-48
2023/03/22 00:11:12;;;;;;;5.90;0.85;;;;;;;;;;5006836;28;20073;-46
2023/03/22 00:13:41;;;;;;;8.35;0.75;;;;;;;;;;5011994;28;20263;-51
2023/03/22 00:16:09;;;;;;;8.80;1.10;;;;;;;;;;5011420;28;20045;-50
2023/03/22 00:18:37;;;;;;;8.47;0.73;;;;;;;;;;5000598;28;20041;-47
2023/03/22 00:21:06;;;;;;;9.13;1.15;;;;;;;;;;5013943;28;20141;-46
2023/03/22 00:23:35;;;;;;;12.68;1.33;;;;;;;;;;4992119;28;20677;-45
2023/03/22 00:26:03;;;;;;;8.75;0.80;;;;;;;;;;5008835;28;20036;-49
2023/03/22 00:28:31;;;;;;;7.72;1.35;;;;;;;;;;5011640;28;20407;-47
2023/03/22 00:30:59;;;;;;;6.27;0.70;;;;;;;;;;5010568;28;20128;-48
2023/03/22 00:33:28;;;;;;;11.48;0.70;;;;;;;;;;5001240;28;20413;-46
2023/03/22 00:35:57;;;;;;;8.10;0.70;;;;;;;;;;5024317;28;20074;-47
2023/03/22 00:38:35;;;;;;;8.05;0.85;;;;;;;;;;5006450;28;20049;-49
2023/03/22 00:41:13;;;;;;;10.65;0.80;;;;;;;;;;5013173;28;20549;-49
2023/03/22 00:43:41;;;;;;;5.43;0.60;;;;;;;;;;5009268;28;20041;-47
2023/03/22 00:46:10;;;;;;;5.20;0.80;;;;;;;;;;5029896;28;20337;-47
2023/03/22 00:48:37;;;;;;;7.22;1.13;;;;;;;;;;5007346;28;20041;-49
2023/03/22 00:51:05;;;;;;;6.60;1.15;;;;;;;;;;5007864;28;20044;-47
2023/03/22 00:53:35;;;;;;;10.48;1.08;;;;;;;;;;4979680;28;20049;-48
2023/03/22 00:56:03;;;;;;;8.70;0.93;;;;;;;;;;5020457;28;20049;-50
2023/03/22 00:58:32;;;;;;;6.38;0.90;;;;;;;;;;5003874;28;20872;-49
2023/03/22 01:01:00;;;;;;;7.00;0.98;;;;;;;;;;5013507;28;20059;-46
2023/03/22 01:03:28;;;;;;;3.03;0.50;;;;;;;;;;5019282;28;20414;-50
2023/03/22 01:05:56;;;;;;;6.72;0.68;;;;;;;;;;4991819;28;20045;-49
2023/03/22 01:08:24;;;;;;;6.33;0.77;;;;;;;;;;5004555;28;20479;-48
2023/03/22 01:10:52;;;;;;;5.45;0.73;;;;;;;;;;5007396;28;20106;-48
2023/03/22 01:13:19;;;;;;;8.60;0.90;;;;;;;;;;5032828;28;20116;-49
2023/03/22 01:15:51;;;;;;;4.03;0.40;;;;;;;;;;5007804;28;20120;-50
2023/03/22 01:18:19;;;;;;;6.53;0.90;;;;;;;;;;5025520;28;20041;-50
2023/03/22 01:20:53;;;;;;;8.17;0.60;;;;;;;;;;5018353;28;21547;-47
2023/03/22 01:23:21;;;;;;;7.72;0.93;;;;;;;;;;5013808;28;20069;-48
2023/03/22 01:25:49;;;;;;;6.43;0.80;;;;;;;;;;5021565;28;20037;-50
2023/03/22 01:28:16;;;;;;;5.15;0.70;;;;;;;;;;5010600;28;20136;-49
2023/03/22 01:30:44;;;;;;;4.70;0.80;;;;;;;;;;5001486;28;20051;-51
2023/03/22 01:33:13;;;;;;;5.90;0.70;;;;;;;;;;5014099;28;20126;-49
2023/03/22 01:35:41;;;;;;;4.55;0.40;;;;;;;;;;5032166;28;20047;-51
2023/03/22 01:38:08;;;;;;;4.88;0.98;;;;;;;;;;5009507;28;20033;-48
2023/03/22 01:40:36;;;;;;;4.88;0.70;;;;;;;;;;5014661;28;20047;-48
2023/03/22 01:43:09;;;;;;;4.97;0.45;;;;;;;;;;5013385;28;20037;-50
2023/03/22 01:45:39;;;;;;;3.57;0.43;;;;;;;;;;5048026;28;20037;-50
2023/03/22 01:48:09;;;;;;;5.25;0.68;;;;;;;;;;5005987;28;20447;-47
2023/03/22 01:50:41;;;;;;;5.03;0.70;;;;;;;;;;5020655;28;20037;-50
2023/03/22 01:53:10;;;;;;;3.53;0.40;;;;;;;;;;5009414;28;20488;-52
2023/03/22 01:55:38;;;;;;;6.03;0.50;;;;;;;;;;4990283;28;20053;-47
2023/03/22 01:58:07;;;;;;;6.70;0.60;;;;;;;;;;5018697;28;20045;-46
2023/03/22 02:00:36;;;;;;;4.07;0.60;;;;;;;;;;5015929;28;20042;-48
2023/03/22 02:03:05;;;;;;;4.05;0.82;;;;;;;;;;5015641;28;20029;-48
2023/03/22 02:05:45;;;;;;;4.07;0.40;;;;;;;;;;5015704;28;20037;-49
2023/03/22 02:08:16;;;;;;;2.95;0.40;;;;;;;;;;5010499;28;20076;-48
2023/03/22 02:10:44;;;;;;;4.27;0.40;;;;;;;;;;5002930;28;20069;-48
2023/03/22 02:13:32;;;;;;;3.03;0.20;;;;;;;;;;5029373;28;20095;-48
2023/03/22 02:16:07;;;;;;;4.20;0.55;;;;;;;;;;4994404;28;20132;-49
2023/03/22 02:18:41;;;;;;;5.15;0.57;;;;;;;;;;5034985;28;20528;-48
2023/03/22 02:21:29;;;;;;;5.05;0.40;;;;;;;;;;5020063;28;20069;-47
2023/03/22 02:24:06;;;;;;;3.27;0.30;;;;;;;;;;5007016;28;20040;-49
2023/03/22 02:26:45;;;;;;;2.80;0.43;;;;;;;;;;5007363;28;20456;-47
2023/03/22 02:29:18;;;;;;;3.90;0.45;;;;;;;;;;5012026;28;20460;-47
2023/03/22 02:32:00;;;;;;;5.22;0.60;;;;;;;;;;5007514;28;20076;-47
2023/03/22 02:34:42;;;;;;;5.78;0.47;;;;;;;;;;5015260;28;20484;-47
2023/03/22 02:37:25;;;;;;;5.77;0.53;;;;;;;;;;4987329;28;20119;-47
2023/03/22 02:39:55;;;;;;;4.60;0.50;;;;;;;;;;5014595;28;20036;-46
2023/03/22 02:42:28;;;;;;;2.58;0.40;;;;;;;;;;4998094;28;20072;-47
2023/03/22 02:45:02;;;;;;;2.67;0.30;;;;;;;;;;5011566;28;20033;-45
2023/03/22 02:47:37;;;;;;;2.83;0.30;;;;;;;;;;5010466;28;20390;-46
2023/03/22 02:50:08;;;;;;;2.53;0.37;;;;;;;;;;5001549;28;20037;-46
2023/03/22 02:52:40;;;;;;;2.05;0.38;;;;;;;;;;5026919;28;20045;-48
2023/03/22 02:55:13;;;;;;;3.40;0.50;;;;;;;;;;5002277;28;20048;-50
2023/03/22 02:57:44;;;;;;;3.42;0.50;;;;;;;;;;4999998;28;20126;-47
2023/03/22 03:00:16;;;;;;;5.72;0.50;;;;;;;;;;5005783;28;20437;-46
2023/03/22 03:02:49;;;;;;;3.07;0.30;;;;;;;;;;5023019;28;20136;-49
2023/03/22 03:05:18;;;;;;;2.50;0.30;;;;;;;;;;4998532;28;20957;-48
2023/03/22 03:07:48;;;;;;;5.07;0.43;;;;;;;;;;5019816;28;20419;-47
2023/03/22 03:10:18;;;;;;;3.25;0.30;;;;;;;;;;5017161;28;20065;-47
2023/03/22 03:12:45;;;;;;;2.30;0.35;;;;;;;;;;5010742;28;20645;-48
2023/03/22 03:15:15;;;;;;;1.97;0.30;;;;;;;;;;5012886;28;20056;-47
2023/03/22 03:17:50;;;;;;;4.97;0.60;;;;;;;;;;5015547;28;20045;-45
2023/03/22 03:20:29;;;;;;;5.65;0.50;;;;;;;;;;4993260;28;20037;-47
2023/03/22 03:23:04;;;;;;;3.85;0.30;;;;;;;;;;5014537;28;20563;-50
2023/03/22 03:25:42;;;;;;;2.50;0.30;;;;;;;;;;5011071;28;20057;-51
2023/03/22 03:28:13;;;;;;;4.30;0.40;;;;;;;;;;5013927;28;20067;-51
2023/03/22 03:30:45;;;;;;;4.78;0.55;;;;;;;;;;4987505;28;20037;-46
2023/03/22 03:33:15;;;;;;;1.52;0.20;;;;;;;;;;5040240;28;20053;-45
2023/03/22 03:35:45;;;;;;;3.65;0.20;;;;;;;;;;5017012;28;20606;-47
2023/03/22 03:38:16;;;;;;;2.63;0.30;;;;;;;;;;5011583;28;20509;-48
2023/03/22 03:40:48;;;;;;;3.17;0.50;;;;;;;;;;5032302;28;20044;-46
2023/03/22 03:43:16;;;;;;;4.07;0.40;;;;;;;;;;4997903;28;20091;-46
2023/03/22 03:45:50;;;;;;;3.92;0.38;;;;;;;;;;5032974;28;20116;-49
2023/03/22 03:48:22;;;;;;;3.70;0.40;;;;;;;;;;5012979;28;20044;-47
2023/03/22 03:50:51;;;;;;;3.05;0.50;;;;;;;;;;5004961;28;20060;-46
2023/03/22 03:53:19;;;;;;;3.07;0.50;;;;;;;;;;5007196;28;20045;-49
2023/03/22 03:55:48;;;;;;;4.32;0.40;;;;;;;;;;5001863;28;20116;-47
2023/03/22 03:58:16;;;;;;;2.88;0.43;;;;;;;;;;4980166;28;20073;-47
2023/03/22 04:00:44;;;;;;;1.95;0.30;;;;;;;;;;5027810;28;20770;-47
2023/03/22 04:03:13;;;;;;;2.85;0.40;;;;;;;;;;5005802;28;20501;-49
2023/03/22 04:05:41;;;;;;;4.03;0.30;;;;;;;;;;5017804;28;21042;-46
2023/03/22 04:08:08;;;;;;;2.22;0.30;;;;;;;;;;5014532;28;20583;-48
2023/03/22 04:10:36;;;;;;;2.88;0.20;;;;;;;;;;5003710;28;20045;-48
2023/03/22 04:13:05;;;;;;;3.28;0.43;;;;;;;;;;5012323;28;20041;-50
2023/03/22 04:15:33;;;;;;;1.52;0.20;;;;;;;;;;5006095;28;20517;-49
2023/03/22 04:18:02;;;;;;;2.40;0.30;;;;;;;;;;5009529;28;20127;-46
2023/03/22 04:20:30;;;;;;;2.58;0.30;;;;;;;;;;5020278;28;20080;-47
2023/03/22 04:22:59;;;;;;;2.70;0.20;;;;;;;;;;5007909;28;20399;-48
2023/03/22 04:25:28;;;;;;;1.98;0.30;;;;;;;;;;4986685;28;20805;-45
2023/03/22 04:27:56;;;;;;;3.33;0.40;;;;;;;;;;5019492;28;20037;-49
2023/03/22 04:30:26;;;;;;;4.43;0.20;;;;;;;;;;5006005;28;20041;-46
2023/03/22 04:32:55;;;;;;;2.60;0.30;;;;;;;;;;5007345;28;20116;-46
2023/03/22 04:35:22;;;;;;;3.08;0.50;;;;;;;;;;4997393;28;20072;-48
2023/03/22 04:37:50;;;;;;;3.35;0.30;;;;;;;;;;5023006;28;20044;-49
2023/03/22 04:40:19;;;;;;;2.20;0.22;;;;;;;;;;5016993;28;20037;-47
2023/03/22 04:42:47;;;;;;;2.30;0.30;;;;;;;;;;5000320;28;20061;-46
2023/03/22 04:45:15;;;;;;;2.13;0.40;;;;;;;;;;5017004;28;20079;-48
2023/03/22 04:47:44;;;;;;;4.82;0.50;;;;;;;;;;5006274;28;20129;-46
2023/03/22 04:50:11;;;;;;;3.38;0.50;;;;;;;;;;5015258;28;20100;-48
2023/03/22 04:52:39;;;;;;;1.63;0.30;;;;;;;;;;4999032;28;20047;-49
2023/03/22 04:55:07;;;;;;;2.80;0.30;;;;;;;;;;5015362;28;20406;-46
2023/03/22 04:57:35;;;;;;;4.78;0.80;;;;;;;;;;4996152;28;21099;-48
2023/03/22 05:00:05;;;;;;;5.63;0.70;;;;;;;;;;4988061;28;20037;-46
2023/03/22 05:02:33;;;;;;;2.28;0.35;;;;;;;;;;5022008;28;20039;-46
2023/03/22 05:05:02;;;;;;;4.75;0.50;;;;;;;;;;5026652;28;20040;-48
2023/03/22 05:07:30;;;;;;;2.13;0.40;;;;;;;;;;5004756;28;20124;-47
2023/03/22 05:09:57;;;;;;;3.63;0.45;;;;;;;;;;5018465;28;20095;-46
2023/03/22 05:12:25;;;;;;;3.13;0.45;;;;;;;;;;5004088;28;20065;-46
2023/03/22 05:14:53;;;;;;;2.10;0.35;;;;;;;;;;5011942;28;20048;-48
2023/03/22 05:17:21;;;;;;;4.22;0.40;;;;;;;;;;5006794;28;20033;-49
2023/03/22 05:19:48;;;;;;;4.13;0.40;;;;;;;;;;4996157;28;20132;-49
2023/03/22 05:22:18;;;;;;;3.78;0.40;;;;;;;;;;5015262;28;20036;-50
2023/03/22 05:24:49;;;;;;;4.32;0.40;;;;;;;;;;4995801;28;20666;-48
2023/03/22 05:27:16;;;;;;;5.45;0.50;;;;;;;;;;5000889;28;20103;-46
2023/03/22 05:29:45;;;;;;;3.35;0.47;;;;;;;;;;5030803;28;20037;-47
2023/03/22 05:32:17;;;;;;;2.43;0.30;;;;;;;;;;5005562;28;20448;-45
2023/03/22 05:34:44;;;;;;;4.10;0.40;;;;;;;;;;5024555;28;20453;-45
2023/03/22 05:37:12;;;;;;;3.35;0.30;;;;;;;;;;5005122;28;20660;-45
2023/03/22 05:39:42;;;;;;;3.28;0.50;;;;;;;;;;5016125;28;20494;-49
2023/03/22 05:42:09;;;;;;;1.83;0.25;;;;;;;;;;5012716;28;20090;-47
2023/03/22 05:44:37;;;;;;;2.43;0.50;;;;;;;;;;4999801;28;20291;-45
2023/03/22 05:47:05;;;;;;;1.70;0.40;;;;;;;;;;5017510;28;20047;-48
2023/03/22 05:49:33;;;;;;;2.38;0.30;;;;;;;;;;4992227;28;20275;-48
2023/03/22 05:52:03;;;;;;;1.65;0.22;;;;;;;;;;5034333;28;20155;-47
2023/03/22 05:54:30;;;;;;;2.08;0.40;;;;;;;;;;4981960;28;20125;-49
2023/03/22 05:56:59;;;;;;;3.53;0.50;;;;;;;;;;5017093;28;20555;-46
2023/03/22 05:59:27;;;;;;;3.97;0.47;;;;;;;;;;5008089;28;21936;-47
2023/03/22 06:01:55;;;;;;;6.85;0.40;;;;;;;;;;5013723;28;20498;-46
2023/03/22 06:04:22;;;;;;;3.25;0.30;;;;;;;;;;4999823;28;20124;-46
2023/03/22 06:06:52;;;;;;;3.97;0.50;;;;;;;;;;5013573;28;20132;-45
2023/03/22 06:09:20;;;;;;;4.13;0.30;;;;;;;;;;5022540;28;20045;-48
2023/03/22 06:11:47;;;;;;;5.20;0.57;;;;;;;;;;5013483;28;20037;-46
2023/03/22 06:14:16;;;;;;;4.05;0.30;;;;;;;;;;5010322;28;20132;-46
2023/03/22 06:16:48;;;;;;;3.50;0.50;;;;;;;;;;5020390;28;20496;-46
2023/03/22 06:19:16;;;;;;;3.55;0.68;;;;;;;;;;5008185;28;20116;-49
2023/03/22 06:21:45;;;;;;;3.50;0.23;;;;;;;;;;4985430;28;20487;-46
2023/03/22 06:24:13;;;;;;;4.03;0.30;;;;;;;;;;5014651;28;20116;-47
2023/03/22 06:26:40;;;;;;;4.15;0.30;;;;;;;;;;5002521;28;20124;-47
2023/03/22 06:29:08;;;;;;;1.90;0.30;;;;;;;;;;5017642;28;20410;-47
2023/03/22 06:31:37;;;;;;;2.75;0.30;;;;;;;;;;5009686;28;20130;-45
2023/03/22 06:34:05;;;;;;;3.53;0.40;;;;;;;;;;5016224;28;20755;-48
2023/03/22 06:36:33;;;;;;;4.28;0.52;;;;;;;;;;4994057;28;20730;-47
2023/03/22 06:39:03;;;;;;;3.92;0.43;;;;;;;;;;5016445;28;20029;-49
2023/03/22 06:41:31;;;;;;;4.65;0.45;;;;;;;;;;5008316;28;20522;-45
2023/03/22 06:43:59;;;;;;;4.03;0.30;;;;;;;;;;5017458;28;20060;-48
2023/03/22 06:46:27;;;;;;;4.50;0.43;;;;;;;;;;4999029;28;20553;-46
2023/03/22 06:48:56;;;;;;;4.53;0.30;;;;;;;;;;5016684;28;20046;-47
2023/03/22 06:51:23;;;;;;;4.45;0.43;;;;;;;;;;5030114;28;20127;-47
2023/03/22 06:53:51;;;;;;;4.20;0.63;;;;;;;;;;5013743;28;20045;-49
2023/03/22 06:56:18;;;;;;;3.10;0.50;;;;;;;;;;5002254;28;20096;-47
2023/03/22 06:58:50;;;;;;;5.13;0.60;;;;;;;;;;5008358;28;20503;-45
2023/03/22 07:01:18;;;;;;;4.20;0.40;;;;;;;;;;5010741;28;20075;-48
2023/03/22 07:03:46;;;;;;;2.80;0.50;;;;;;;;;;5009244;28;20044;-45
2023/03/22 07:06:15;;;;;;;4.53;0.40;;;;;;;;;;5014902;28;20044;-46
2023/03/22 07:08:48;;;;;;;6.38;0.70;;;;;;;;;;5027201;28;20095;-49
2023/03/22 07:11:19;;;;;;;4.87;0.70;;;;;;;;;;5009173;28;20041;-46
2023/03/22 07:13:47;;;;;;;7.13;0.98;;;;;;;;;;5010325;28;20071;-45
2023/03/22 07:16:15;;;;;;;8.43;0.73;;;;;;;;;;5013034;28;20048;-46
2023/03/22 07:18:47;;;;;;;7.25;0.77;;;;;;;;;;5005416;28;20383;-47
2023/03/22 07:21:17;;;;;;;11.25;0.95;;;;;;;;;;5017824;28;20032;-46
2023/03/22 07:23:45;;;;;;;5.53;0.70;;;;;;;;;;5006087;28;20116;-49
2023/03/22 07:26:13;;;;;;;11.30;1.20;;;;;;;;;;5019501;28;20447;-48
2023/03/22 07:28:43;;;;;;;9.70;1.20;;;;;;;;;;4996417;28;20036;-50
2023/03/22 07:31:11;;;;;;;9.05;0.88;;;;;;;;;;5014204;28;20809;-47
2023/03/22 07:33:39;;;;;;;10.20;1.27;;;;;;;;;;5005345;28;21362;-48
2023/03/22 07:36:08;;;;;;;11.20;1.87;;;;;;;;;;5011070;28;20046;-46
2023/03/22 07:38:37;;;;;;;18.88;2.22;;;;;;;;;;5003048;28;20034;-48
2023/03/22 07:41:05;;;;;;;9.98;1.33;;;;;;;;;;5029855;28;20041;-46
2023/03/22 07:43:33;;;;;;;12.38;1.67;;;;;;;;;;5010953;28;20033;-46
2023/03/22 07:46:19;;;;;;;17.42;1.55;;;;;;;;;;5000880;28;20041;-45
2023/03/22 07:48:46;;;;;;;12.73;1.60;;;;;;;;;;5025894;28;20041;-46
2023/03/22 07:51:14;;;;;;;13.38;2.05;;;;;;;;;;5005405;28;20136;-50
2023/03/22 07:53:43;;;;;;;20.77;1.85;;;;;;;;;;5009533;28;20033;-50
2023/03/22 07:56:11;;;;;;;10.77;1.58;;;;;;;;;;4992719;28;20171;-49
2023/03/22 07:58:38;;;;;;;14.15;1.70;;;;;;;;;;5006922;28;20045;-46
2023/03/22 08:01:08;;;;;;;14.43;2.13;;;;;;;;;;5006200;28;20479;-46
2023/03/22 08:03:36;;;;;;;13.07;1.75;;;;;;;;;;5026208;28;20106;-47
2023/03/22 08:06:06;;;;;;;19.25;2.28;;;;;;;;;;4994536;28;20094;-47
2023/03/22 08:08:34;;;;;;;22.38;2.30;;;;;;;;;;5018991;28;20055;-46
2023/03/22 08:11:03;;;;;;;16.23;1.60;;;;;;;;;;5005478;28;20055;-46
2023/03/22 08:13:37;;;;;;;11.70;1.43;;;;;;;;;;5010217;28;20124;-48
2023/03/22 08:16:05;;;;;;;17.67;1.30;;;;;;;;;;5015950;28;20140;-48
2023/03/22 08:18:33;;;;;;;11.77;1.70;;;;;;;;;;5004757;28;20052;-46
2023/03/22 08:21:00;;;;;;;16.58;1.92;;;;;;;;;;5016049;28;20113;-46
2023/03/22 08:23:29;;;;;;;17.83;2.40;;;;;;;;;;4987426;28;20311;-49
2023/03/22 08:26:10;;;;;;;17.40;1.93;;;;;;;;;;5015796;28;20108;-49
2023/03/22 08:28:37;;;;;;;13.23;1.65;;;;;;;;;;4993552;28;20072;-50
2023/03/22 08:31:10;;;;;;;13.68;1.83;;;;;;;;;;5008854;28;20076;-51
2023/03/22 08:33:40;;;;;;;9.60;1.58;;;;;;;;;;5013332;28;20034;-46
2023/03/22 08:36:11;;;;;;;17.55;2.17;;;;;;;;;;5008287;28;20080;-48
2023/03/22 08:38:39;;;;;;;18.27;2.10;;;;;;;;;;5011912;28;20142;-47
2023/03/22 08:41:11;;;;;;;9.30;1.38;;;;;;;;;;5000387;28;20615;-49
2023/03/22 08:43:40;;;;;;;15.18;1.40;;;;;;;;;;5002755;28;20120;-46
2023/03/22 08:46:08;;;;;;;15.82;2.17;;;;;;;;;;5002646;28;20052;-45
2023/03/22 08:48:40;;;;;;;16.75;1.65;;;;;;;;;;5022358;28;20116;-45
2023/03/22 08:51:09;;;;;;;20.10;1.90;;;;;;;;;;4996820;28;20563;-46
2023/03/22 08:53:37;;;;;;;18.70;2.05;;;;;;;;;;5003667;28;20124;-49
2023/03/22 08:56:05;;;;;;;14.18;1.70;;;;;;;;;;4987962;28;20852;-49
2023/03/22 08:58:35;;;;;;;18.95;1.63;;;;;;;;;;5010896;28;20095;-46
2023/03/22 09:01:02;;;;;;;14.40;2.38;;;;;;;;;;5000051;28;20461;-45
2023/03/22 09:03:31;;;;;;;9.77;2.00;;;;;;;;;;5012754;28;20049;-46
2023/03/22 09:05:59;;;;;;;23.27;2.63;;;;;;;;;;4638378;28;10000216;-49
2023/03/22 09:08:27;;;;;;;11.98;1.88;;;;;;;;;;5023945;28;20494;-46
2023/03/22 09:10:55;;;;;;;10.55;1.52;;;;;;;;;;5002776;28;20072;-48
2023/03/22 09:13:23;;;;;;;11.55;2.05;;;;;;;;;;5011000;28;20041;-47
2023/03/22 09:15:52;;;;;;;11.38;1.75;;;;;;;;;;4984968;28;20052;-46
2023/03/22 09:18:21;;;;;;;11.73;1.30;;;;;;;;;;5012789;28;20037;-47
2023/03/22 09:20:50;;;;;;;13.63;1.58;;;;;;;;;;4663661;28;10000126;-49
2023/03/22 09:23:18;;;;;;;5.63;0.70;;;;;;;;;;5013697;28;20052;-48
2023/03/22 09:25:47;;;;;;;11.60;1.23;;;;;;;;;;5021277;28;20044;-50
2023/03/22 09:28:15;;;;;;;13.38;1.23;;;;;;;;;;4962211;28;20041;-47
2023/03/22 09:30:43;;;;;;;15.20;1.43;;;;;;;;;;4981173;28;20585;-47
2023/03/22 09:33:13;;;;;;;18.90;1.40;;;;;;;;;;4986822;28;20050;-46
2023/03/22 09:35:42;;;;;;;14.95;1.30;;;;;;;;;;4980132;28;20049;-46
2023/03/22 09:38:11;;;;;;;12.10;0.90;;;;;;;;;;4991972;28;20318;-47
2023/03/22 09:40:41;;;;;;;12.40;1.48;;;;;;;;;;4993743;28;20045;-46
2023/03/22 09:43:12;;;;;;;10.50;1.27;;;;;;;;;;4992191;28;20049;-47
2023/03/22 09:45:41;;;;;;;8.60;1.30;;;;;;;;;;4982210;28;21255;-46
2023/03/22 09:48:13;;;;;;;10.27;1.38;;;;;;;;;;4977841;28;20045;-47
2023/03/22 09:50:47;;;;;;;17.40;1.63;;;;;;;;;;4978709;28;20393;-47
2023/03/22 09:53:16;;;;;;;15.77;1.17;;;;;;;;;;4989508;28;20037;-48
2023/03/22 09:55:47;;;;;;;11.13;1.50;;;;;;;;;;4989552;28;20571;-49
2023/03/22 09:58:19;;;;;;;14.30;1.83;;;;;;;;;;4989114;28;20045;-46
2023/03/22 10:00:48;;;;;;;20.55;1.67;;;;;;;;;;4989360;28;20046;-46
2023/03/22 10:03:19;;;;;;;12.63;1.75;;;;;;;;;;4996922;28;20415;-51
2023/03/22 10:05:50;;;;;;;13.43;1.67;;;;;;;;;;4984119;28;20099;-49
2023/03/22 10:08:23;;;;;;;14.47;1.90;;;;;;;;;;4983328;28;20470;-46
2023/03/22 10:10:51;;;;;;;12.45;1.30;;;;;;;;;;4989524;28;20582;-49
2023/03/22 10:13:23;;;;;;;13.93;1.70;;;;;;;;;;4992667;28;20423;-48
2023/03/22 10:15:51;;;;;;;11.45;2.03;;;;;;;;;;4989974;28;20093;-49
2023/03/22 10:18:23;;;;;;;9.35;1.67;;;;;;;;;;4987604;28;20499;-52
2023/03/22 10:20:57;;;;;;;8.13;1.10;;;;;;;;;;4993282;28;20064;-47
2023/03/22 10:23:44;;;;;;;11.57;1.42;;;;;;;;;;4980525;28;20563;-46
2023/03/22 10:26:18;;;;;;;14.52;1.48;;;;;;;;;;4980329;28;20037;-51
2023/03/22 10:28:49;;;;;;;9.45;2.13;;;;;;;;;;4990802;28;20498;-46
2023/03/22 10:31:19;;;;;;;14.82;1.77;;;;;;;;;;4979087;28;20412;-49
2023/03/22 10:33:52;;;;;;;13.47;1.73;;;;;;;;;;4997846;28;20041;-49
2023/03/22 10:36:23;;;;;;;12.98;1.63;;;;;;;;;;4980922;28;20053;-47
2023/03/22 10:38:52;;;;;;;6.95;0.73;;;;;;;;;;4985940;28;20140;-49
2023/03/22 10:41:25;;;;;;;11.93;1.60;;;;;;;;;;4973751;28;20418;-50
2023/03/22 10:43:56;;;;;;;11.48;1.00;;;;;;;;;;5000765;28;20125;-47
2023/03/22 10:46:24;;;;;;;13.33;2.10;;;;;;;;;;4969085;28;20146;-49
2023/03/22 10:48:55;;;;;;;11.70;1.88;;;;;;;;;;4986316;28;20125;-49
2023/03/22 10:51:44;;;;;;;7.53;1.13;;;;;;;;;;4990744;28;20174;-52
2023/03/22 10:54:13;;;;;;;8.63;0.80;;;;;;;;;;4981122;28;20053;-51
2023/03/22 10:56:40;;;;;;;6.35;0.75;;;;;;;;;;5002701;28;20104;-47
2023/03/22 10:59:10;;;;;;;10.37;0.97;;;;;;;;;;5008181;28;20637;-47
2023/03/22 11:01:43;;;;;;;8.63;0.80;;;;;;;;;;5021849;28;20121;-46
2023/03/22 11:04:12;;;;;;;9.07;0.75;;;;;;;;;;5003033;28;21342;-46
2023/03/22 11:06:48;;;;;;;10.10;1.63;;;;;;;;;;5017202;28;20033;-47
2023/03/22 11:09:17;;;;;;;11.02;1.40;;;;;;;;;;5017776;28;20460;-47
2023/03/22 11:11:47;;;;;;;7.37;0.80;;;;;;;;;;5017641;28;20054;-49
2023/03/22 11:14:16;;;;;;;7.78;0.73;;;;;;;;;;5012254;28;20068;-49
2023/03/22 11:16:47;;;;;;;6.63;0.75;;;;;;;;;;5008664;28;20068;-46
2023/03/22 11:19:21;;;;;;;7.13;0.85;;;;;;;;;;5015027;28;20060;-48
2023/03/22 11:21:51;;;;;;;7.00;0.70;;;;;;;;;;4315258;28;10000908;-51
2023/03/22 11:24:20;;;;;;;10.90;1.20;;;;;;;;;;5018375;28;20045;-47
2023/03/22 11:27:01;;;;;;;6.28;0.55;;;;;;;;;;5011120;28;20314;-49
2023/03/22 11:29:40;;;;;;;9.30;1.17;;;;;;;;;;5014098;28;20131;-50
2023/03/22 11:32:20;;;;;;;7.53;0.68;;;;;;;;;;5003354;28;20554;-47
2023/03/22 11:34:59;;;;;;;5.70;0.77;;;;;;;;;;5021885;28;20051;-48
2023/03/22 11:37:29;;;;;;;9.77;0.90;;;;;;;;;;5009121;28;20346;-50
2023/03/22 11:40:03;;;;;;;10.43;1.20;;;;;;;;;;5020692;28;20107;-52
2023/03/22 11:42:33;;;;;;;4.78;0.70;;;;;;;;;;5025324;28;20041;-50
2023/03/22 11:45:01;;;;;;;6.07;0.90;;;;;;;;;;5012056;28;20487;-50
2023/03/22 11:47:33;;;;;;;6.55;0.80;;;;;;;;;;5016712;28;20053;-48
2023/03/22 11:50:03;;;;;;;7.47;1.00;;;;;;;;;;5019977;28;20550;-49
2023/03/22 11:52:32;;;;;;;6.25;0.88;;;;;;;;;;5018568;28;20455;-47
2023/03/22 11:55:00;;;;;;;8.98;1.23;;;;;;;;;;5018019;28;20072;-47
2023/03/22 11:57:30;;;;;;;5.47;1.08;;;;;;;;;;5009305;28;21558;-46
2023/03/22 12:00:00;;;;;;;7.47;0.90;;;;;;;;;;5015641;28;20098;-50
2023/03/22 12:02:29;;;;;;;9.10;2.00;;;;;;;;;;4999687;28;20044;-45
2023/03/22 12:05:00;;;;;;;4.53;0.60;;;;;;;;;;5012767;28;20124;-51
2023/03/22 12:07:30;;;;;;;8.35;1.42;;;;;;;;;;5002267;28;20068;-48
2023/03/22 12:10:01;;;;;;;5.78;0.50;;;;;;;;;;5008454;28;20086;-48
2023/03/22 12:12:34;;;;;;;6.38;1.00;;;;;;;;;;5010763;28;20585;-49
2023/03/22 12:15:04;;;;;;;9.03;1.37;;;;;;;;;;4995217;28;21304;-47
2023/03/22 12:17:35;;;;;;;11.27;0.93;;;;;;;;;;5007578;28;20037;-48
2023/03/22 12:20:07;;;;;;;12.15;1.27;;;;;;;;;;5006500;28;20124;-47
2023/03/22 12:22:38;;;;;;;11.60;1.60;;;;;;;;;;5007888;28;20475;-46
2023/03/22 12:25:12;;;;;;;7.22;1.00;;;;;;;;;;4995640;28;20037;-49
2023/03/22 12:27:42;;;;;;;9.40;1.47;;;;;;;;;;4648058;28;10000914;-48
2023/03/22 12:30:13;;;;;;;8.00;0.82;;;;;;;;;;5014677;28;20069;-47
2023/03/22 12:32:44;;;;;;;8.90;1.02;;;;;;;;;;5014029;28;20139;-48
2023/03/22 12:35:14;;;;;;;8.93;1.10;;;;;;;;;;5007140;28;20044;-48
2023/03/22 12:37:46;;;;;;;8.50;1.10;;;;;;;;;;5016889;28;20040;-51
2023/03/22 12:40:19;;;;;;;8.80;1.10;;;;;;;;;;5002654;28;20095;-48
2023/03/22 12:42:51;;;;;;;6.80;1.23;;;;;;;;;;5003453;28;20118;-48
2023/03/22 12:45:26;;;;;;;6.10;0.88;;;;;;;;;;5011566;28;20040;-48
2023/03/22 12:47:57;;;;;;;7.20;0.90;;;;;;;;;;5007086;28;20457;-50
2023/03/22 12:50:28;;;;;;;10.93;1.80;;;;;;;;;;4665400;28;10000840;-49
2023/03/22 12:52:57;;;;;;;7.70;1.25;;;;;;;;;;5011963;28;20495;-46
2023/03/22 12:55:28;;;;;;;6.22;1.08;;;;;;;;;;5000736;28;20069;-46
2023/03/22 12:57:56;;;;;;;9.07;1.38;;;;;;;;;;5011624;28;20073;-48
2023/03/22 13:00:27;;;;;;;5.80;0.70;;;;;;;;;;5008299;28;20116;-48
2023/03/22 13:02:58;;;;;;;12.68;2.47;;;;;;;;;;5013675;28;20037;-53
2023/03/22 13:05:28;;;;;;;12.43;1.17;;;;;;;;;;5011403;28;20512;-47
2023/03/22 13:07:57;;;;;;;12.30;1.17;;;;;;;;;;5018179;28;20750;-46
2023/03/22 13:10:40;;;;;;;18.73;1.48;;;;;;;;;;5011727;28;20052;-47
2023/03/22 13:13:10;;;;;;;11.23;1.73;;;;;;;;;;5005861;28;20075;-51
2023/03/22 13:15:40;;;;;;;7.40;0.90;;;;;;;;;;5008223;28;20037;-49
2023/03/22 13:18:23;;;;;;;9.98;1.00;;;;;;;;;;5000215;28;20457;-46
2023/03/22 13:21:05;;;;;;;8.07;0.93;;;;;;;;;;4994686;28;20501;-46
2023/03/22 13:23:33;;;;;;;11.20;1.40;;;;;;;;;;5006979;28;20121;-47
2023/03/22 13:26:04;;;;;;;8.83;1.13;;;;;;;;;;5012745;28;20124;-49
2023/03/22 13:28:36;;;;;;;7.82;0.98;;;;;;;;;;5008346;28;20127;-49
2023/03/22 13:31:05;;;;;;;9.25;1.25;;;;;;;;;;5009151;28;20590;-46
2023/03/22 13:33:34;;;;;;;7.55;0.93;;;;;;;;;;5019789;28;20059;-48
2023/03/22 13:36:05;;;;;;;10.15;2.00;;;;;;;;;;5019077;28;20151;-46
2023/03/22 13:38:35;;;;;;;10.07;1.10;;;;;;;;;;5019270;28;20052;-48
2023/03/22 13:41:09;;;;;;;11.05;1.30;;;;;;;;;;5002292;28;20033;-49
2023/03/22 13:43:43;;;;;;;10.20;1.15;;;;;;;;;;5015335;28;20053;-47
2023/03/22 13:46:13;;;;;;;9.52;1.42;;;;;;;;;;5008101;28;20045;-47
2023/03/22 13:48:52;;;;;;;12.77;1.50;;;;;;;;;;5038954;28;20120;-45
2023/03/22 13:51:22;;;;;;;14.50;1.33;;;;;;;;;;5009511;28;20064;-47
2023/03/22 13:53:55;;;;;;;5.70;0.77;;;;;;;;;;5024083;28;20041;-48
2023/03/22 13:56:32;;;;;;;10.43;1.60;;;;;;;;;;4992246;28;20033;-46
2023/03/22 13:59:02;;;;;;;10.07;1.45;;;;;;;;;;5009583;28;20666;-47
2023/03/22 14:01:33;;;;;;;15.75;2.05;;;;;;;;;;5022497;28;20483;-45
2023/03/22 14:04:05;;;;;;;8.53;1.53;;;;;;;;;;4998150;28;20037;-45
2023/03/22 14:06:37;;;;;;;11.65;1.65;;;;;;;;;;5011973;28;20492;-46
2023/03/22 14:09:11;;;;;;;10.65;1.35;;;;;;;;;;5024430;28;20098;-47
2023/03/22 14:11:44;;;;;;;7.93;1.10;;;;;;;;;;5004869;28;20128;-48
2023/03/22 14:14:15;;;;;;;9.07;1.15;;;;;;;;;;5005682;28;20615;-46
2023/03/22 14:16:46;;;;;;;11.93;1.90;;;;;;;;;;5016258;28;20047;-45
2023/03/22 14:19:17;;;;;;;13.02;1.35;;;;;;;;;;5017431;28;20735;-49
2023/03/22 14:21:47;;;;;;;8.70;1.02;;;;;;;;;;5009614;28;20102;-48
2023/03/22 14:24:15;;;;;;;12.00;1.30;;;;;;;;;;5013566;28;20045;-47
2023/03/22 14:26:44;;;;;;;10.25;1.90;;;;;;;;;;5006629;28;20143;-45
2023/03/22 14:29:15;;;;;;;14.67;2.07;;;;;;;;;;5001295;28;20045;-47
2023/03/22 14:31:42;;;;;;;8.45;1.42;;;;;;;;;;5011894;28;20458;-45
2023/03/22 14:34:12;;;;;;;7.80;1.40;;;;;;;;;;5025571;28;20045;-47
2023/03/22 14:36:40;;;;;;;5.53;1.05;;;;;;;;;;5007937;28;20041;-46
2023/03/22 14:39:11;;;;;;;13.82;1.73;;;;;;;;;;4977956;28;20049;-47
2023/03/22 14:41:37;;;;;;;6.33;1.23;;;;;;;;;;5019824;28;20045;-46
2023/03/22 14:44:06;;;;;;;8.63;1.48;;;;;;;;;;5022404;28;20064;-46
2023/03/22 14:46:33;;;;;;;8.80;1.45;;;;;;;;;;5016528;28;20044;-49
2023/03/22 14:49:01;;;;;;;9.52;1.17;;;;;;;;;;5017350;28;20055;-47
2023/03/22 14:51:30;;;;;;;5.77;1.00;;;;;;;;;;4669242;28;10000338;-48
2023/03/22 14:53:58;;;;;;;7.15;1.27;;;;;;;;;;5016646;28;20510;-46
2023/03/22 14:56:28;;;;;;;5.88;1.15;;;;;;;;;;5000115;28;20423;-50